Time;durP1;ratioP1;P1;durP2;ratioP2;P2;SDS_P1;SDS_P2;PMS_P1;PMS_P2;Temp;Humidity;BMP_temperature;BMP_pressure;BME280_temperature;BME280_humidity;BME280_pressure;Samples;Min_cycle;Max_cycle;Signal;HPM_P1;HPM_P2
2022/09/11 00:00:53;;;;;;;13.45;10.20;;;17.40;99.90;;;;;;5056431;28;20254;-87
2022/09/11 00:03:23;;;;;;;16.23;10.18;;;17.40;99.90;;;;;;5056693;28;20171;-87
2022/09/11 00:05:49;;;;;;;15.15;10.10;;;17.50;99.90;;;;;;5055791;28;20191;-88
2022/09/11 00:08:17;;;;;;;11.93;9.48;;;17.30;99.90;;;;;;5060177;28;20186;-88
2022/09/11 00:10:44;;;;;;;12.57;10.25;;;17.40;99.90;;;;;;5057559;28;20167;-88
2022/09/11 00:13:15;;;;;;;18.67;10.77;;;17.40;99.90;;;;;;5058454;28;20167;-88
2022/09/11 00:15:43;;;;;;;12.05;9.07;;;17.30;99.90;;;;;;5057375;28;20198;-88
2022/09/11 00:18:13;;;;;;;21.02;11.45;;;17.40;99.90;;;;;;5058912;28;20178;-87
2022/09/11 00:20:48;;;;;;;14.52;10.18;;;17.30;99.90;;;;;;5056612;28;20155;-89
2022/09/11 00:23:16;;;;;;;19.65;11.57;;;17.30;99.90;;;;;;5056541;28;20221;-87
2022/09/11 00:25:45;;;;;;;13.10;10.57;;;17.30;99.90;;;;;;5055931;28;20658;-88
2022/09/11 00:28:14;;;;;;;22.58;10.75;;;17.30;99.90;;;;;;5057350;28;20258;-88
2022/09/11 00:30:43;;;;;;;16.27;11.02;;;17.30;99.90;;;;;;5056371;28;20214;-87
2022/09/11 00:33:12;;;;;;;11.77;10.57;;;17.30;99.90;;;;;;5056179;28;20194;-90
2022/09/11 00:35:39;;;;;;;17.35;10.90;;;17.20;99.90;;;;;;5055228;28;20714;-87
2022/09/11 00:38:07;;;;;;;19.52;11.07;;;17.20;99.90;;;;;;5058655;28;20178;-88
2022/09/11 00:40:48;;;;;;;16.08;11.52;;;17.20;99.90;;;;;;5056776;28;20640;-88
2022/09/11 00:43:15;;;;;;;14.13;11.00;;;17.20;99.90;;;;;;5057902;28;20254;-88
2022/09/11 00:45:51;;;;;;;20.08;10.77;;;17.00;99.90;;;;;;5058665;28;20191;-89
2022/09/11 00:48:21;;;;;;;13.95;10.93;;;17.10;99.90;;;;;;5062880;28;20166;-91
2022/09/11 00:50:49;;;;;;;14.40;10.77;;;17.00;99.90;;;;;;5064271;28;20226;-88
2022/09/11 00:53:18;;;;;;;15.40;10.90;;;17.00;99.90;;;;;;5070459;28;20166;-91
2022/09/11 00:55:49;;;;;;;15.32;10.70;;;17.00;99.90;;;;;;5068453;28;20293;-92
2022/09/11 00:58:20;;;;;;;21.65;11.30;;;17.00;99.90;;;;;;5069067;28;20232;-91
2022/09/11 01:00:46;;;;;;;17.42;11.07;;;17.00;99.90;;;;;;5068949;28;20187;-89
2022/09/11 01:03:13;;;;;;;17.50;11.40;;;17.10;99.90;;;;;;5069787;28;20171;-92
2022/09/11 01:05:42;;;;;;;17.52;10.77;;;17.00;99.90;;;;;;5067985;28;20278;-88
2022/09/11 01:08:09;;;;;;;18.70;10.93;;;17.10;99.90;;;;;;5053548;28;20182;-88
2022/09/11 01:11:07;;;;;;;15.48;10.95;;;17.00;99.90;;;;;;5075907;28;20194;-89
2022/09/11 01:13:46;;;;;;;17.08;11.18;;;16.90;99.90;;;;;;5081234;28;20166;-90
2022/09/11 01:16:43;;;;;;;16.80;10.52;;;16.90;99.90;;;;;;5081318;28;20155;-89
2022/09/11 01:19:43;;;;;;;16.58;11.00;;;16.70;99.90;;;;;;5078035;28;20243;-88
2022/09/11 01:22:30;;;;;;;20.83;11.50;;;16.70;99.90;;;;;;5078256;28;20175;-88
2022/09/11 01:25:26;;;;;;;23.33;10.60;;;16.70;99.90;;;;;;5078133;28;20250;-88
2022/09/11 01:28:00;;;;;;;17.73;12.00;;;16.80;99.90;;;;;;5063040;28;20235;-90
2022/09/11 01:30:36;;;;;;;13.98;11.55;;;16.80;99.90;;;;;;5078698;28;20205;-87
2022/09/11 01:33:24;;;;;;;24.55;12.35;;;17.00;99.90;;;;;;5076632;28;20167;-89
2022/09/11 01:36:04;;;;;;;16.33;10.85;;;17.10;99.90;;;;;;5074359;28;20175;-87
2022/09/11 01:38:41;;;;;;;18.38;11.68;;;17.00;99.90;;;;;;5077054;28;20251;-88
2022/09/11 01:41:14;;;;;;;15.50;12.38;;;16.90;99.90;;;;;;5075728;28;20179;-87
2022/09/11 01:44:02;;;;;;;19.33;11.02;;;16.80;99.90;;;;;;5078155;28;20202;-91
2022/09/11 01:46:34;;;;;;;17.08;12.27;;;16.90;99.90;;;;;;5078518;28;20170;-93
2022/09/11 01:49:14;;;;;;;16.40;12.00;;;17.10;99.90;;;;;;5077534;28;20171;-88
2022/09/11 01:51:40;;;;;;;25.27;12.43;;;17.00;99.90;;;;;;5076312;28;20151;-90
2022/09/11 01:54:22;;;;;;;17.48;12.52;;;16.90;99.90;;;;;;5075425;28;20202;-87
2022/09/11 01:56:55;;;;;;;13.07;11.02;;;16.90;99.90;;;;;;5067473;28;20183;-88
2022/09/11 01:59:31;;;;;;;16.40;11.40;;;16.80;99.90;;;;;;5067210;28;20262;-94
2022/09/11 02:02:06;;;;;;;21.60;12.43;;;16.80;99.90;;;;;;5048417;28;20201;-92
2022/09/11 02:04:45;;;;;;;13.93;11.70;;;16.80;99.90;;;;;;5065549;28;20217;-95
2022/09/11 02:07:19;;;;;;;21.17;11.48;;;16.80;99.90;;;;;;5048174;28;20228;-90
2022/09/11 02:10:05;;;;;;;24.25;12.05;;;16.60;99.90;;;;;;5048405;28;20235;-90
2022/09/11 02:12:45;;;;;;;17.05;12.52;;;16.70;99.90;;;;;;5048331;28;20179;-96
2022/09/11 02:15:14;;;;;;;22.25;12.52;;;16.60;99.90;;;;;;5068589;28;20862;-95
2022/09/11 02:17:54;;;;;;;21.05;12.57;;;16.60;99.90;;;;;;5074071;28;20159;-94
2022/09/11 02:20:23;;;;;;;24.25;13.48;;;16.60;99.90;;;;;;5073504;28;20171;-88
2022/09/11 02:22:50;;;;;;;17.77;11.60;;;16.50;99.90;;;;;;5057947;28;20182;-93
2022/09/11 02:25:16;;;;;;;15.82;11.65;;;16.40;99.90;;;;;;5073826;28;20228;-94
2022/09/11 02:27:41;;;;;;;20.00;11.60;;;16.30;99.90;;;;;;5072619;28;20197;-95
2022/09/11 02:30:11;;;;;;;15.77;11.32;;;16.20;99.90;;;;;;5073090;28;20174;-94
2022/09/11 02:32:44;;;;;;;14.48;12.20;;;16.20;99.90;;;;;;5066960;28;20203;-94
2022/09/11 02:35:11;;;;;;;14.90;11.93;;;16.30;99.90;;;;;;5065583;28;20183;-96
2022/09/11 02:37:44;;;;;;;15.95;12.63;;;16.40;99.90;;;;;;5065512;28;20171;-94
2022/09/11 02:40:30;;;;;;;19.58;13.40;;;16.50;99.90;;;;;;5066327;28;20167;-95
2022/09/11 02:43:08;;;;;;;16.23;11.52;;;16.40;99.90;;;;;;5064850;28;20198;-96
2022/09/11 02:45:43;;;;;;;16.45;12.02;;;16.40;99.90;;;;;;5063493;28;20230;-95
2022/09/11 02:48:27;;;;;;;19.88;12.80;;;16.40;99.90;;;;;;5063845;28;20167;-93
2022/09/11 02:51:15;;;;;;;13.20;11.90;;;16.30;99.90;;;;;;5064590;28;20175;-95
2022/09/11 02:54:02;;;;;;;19.42;12.35;;;16.40;99.90;;;;;;5064694;28;20197;-96
2022/09/11 02:56:49;;;;;;;15.77;12.98;;;16.40;99.90;;;;;;5064716;28;20175;-93
2022/09/11 02:59:21;;;;;;;16.15;12.48;;;16.30;99.90;;;;;;5067269;28;20170;-94
2022/09/11 03:01:50;;;;;;;19.33;12.13;;;16.50;99.90;;;;;;5075613;28;20175;-91
2022/09/11 03:04:17;;;;;;;12.23;11.02;;;16.60;99.90;;;;;;5075426;28;20207;-91
2022/09/11 03:06:44;;;;;;;12.65;11.38;;;16.60;99.90;;;;;;5077929;28;20147;-90
2022/09/11 03:09:09;;;;;;;13.27;11.98;;;16.40;99.90;;;;;;5060819;28;20175;-90
2022/09/11 03:11:35;;;;;;;14.73;11.68;;;16.40;99.90;;;;;;5077342;28;20201;-90
2022/09/11 03:14:01;;;;;;;18.00;11.77;;;16.30;99.90;;;;;;5077024;28;20191;-88
2022/09/11 03:16:26;;;;;;;14.48;10.73;;;16.40;99.90;;;;;;5055705;28;20163;-87
2022/09/11 03:18:52;;;;;;;14.68;11.25;;;16.40;99.90;;;;;;5054165;28;20728;-87
2022/09/11 03:21:17;;;;;;;11.93;10.82;;;16.30;99.90;;;;;;5054229;28;20220;-87
2022/09/11 03:23:43;;;;;;;16.23;10.85;;;16.10;99.90;;;;;;5054998;28;20210;-86
2022/09/11 03:26:09;;;;;;;14.27;10.18;;;16.10;99.90;;;;;;5054692;28;20232;-87
2022/09/11 03:28:34;;;;;;;11.40;10.27;;;16.20;99.90;;;;;;5055275;28;20633;-87
2022/09/11 03:31:01;;;;;;;15.57;10.90;;;16.20;99.90;;;;;;5055878;28;20167;-87
2022/09/11 03:33:27;;;;;;;11.77;10.68;;;16.10;99.90;;;;;;5053713;28;20655;-87
2022/09/11 03:35:53;;;;;;;15.27;10.18;;;16.00;99.90;;;;;;5054975;28;20593;-88
2022/09/11 03:38:19;;;;;;;13.07;10.35;;;16.00;99.90;;;;;;5057396;28;20170;-88
2022/09/11 03:40:47;;;;;;;10.50;9.25;;;16.10;99.90;;;;;;5076261;28;20179;-90
2022/09/11 03:43:15;;;;;;;11.95;9.80;;;16.10;99.90;;;;;;5060831;28;20174;-91
2022/09/11 03:45:42;;;;;;;15.02;9.75;;;16.10;99.90;;;;;;5192297;23;20226;-88
2022/09/11 03:48:07;;;;;;;17.30;9.73;;;16.10;99.90;;;;;;5035350;28;20172;-87
2022/09/11 03:50:33;;;;;;;11.60;9.50;;;16.10;99.90;;;;;;5034752;28;20179;-88
2022/09/11 03:52:59;;;;;;;11.32;10.13;;;16.00;99.90;;;;;;5035717;28;20235;-88
2022/09/11 03:55:27;;;;;;;16.42;10.75;;;16.10;99.90;;;;;;5036110;28;20306;-88
2022/09/11 03:57:53;;;;;;;20.45;12.38;;;16.20;99.90;;;;;;5018486;28;20241;-88
2022/09/11 04:00:18;;;;;;;23.27;15.23;;;16.40;99.90;;;;;;5068631;28;20163;-88
2022/09/11 04:02:44;;;;;;;31.65;17.13;;;16.40;99.90;;;;;;5067865;28;20325;-88
2022/09/11 04:05:09;;;;;;;32.90;15.48;;;16.50;99.90;;;;;;5068087;28;20740;-89
2022/09/11 04:07:35;;;;;;;34.92;15.80;;;16.60;99.90;;;;;;5067590;28;20518;-88
2022/09/11 04:10:01;;;;;;;33.20;16.67;;;16.80;99.90;;;;;;5067657;28;20184;-88
2022/09/11 04:12:27;;;;;;;27.73;16.55;;;16.90;99.90;;;;;;5067984;28;20254;-88
2022/09/11 04:14:53;;;;;;;49.10;16.48;;;16.90;99.90;;;;;;5067352;28;20621;-88
2022/09/11 04:17:19;;;;;;;24.00;15.68;;;17.00;99.90;;;;;;5067704;28;20195;-91
2022/09/11 04:19:44;;;;;;;35.03;16.52;;;17.00;99.90;;;;;;5069395;28;20178;-88
2022/09/11 04:22:10;;;;;;;27.58;16.58;;;16.90;99.90;;;;;;5067575;28;20297;-87
2022/09/11 04:24:36;;;;;;;29.70;15.68;;;16.80;99.90;;;;;;5066625;28;20669;-88
2022/09/11 04:27:04;;;;;;;55.50;16.05;;;16.60;99.90;;;;;;5067078;28;20170;-87
2022/09/11 04:29:31;;;;;;;32.53;15.88;;;16.50;99.90;;;;;;5038263;28;20179;-87
2022/09/11 04:31:57;;;;;;;31.40;15.43;;;16.40;99.90;;;;;;5037129;28;20243;-87
2022/09/11 04:34:22;;;;;;;34.78;15.25;;;16.50;99.90;;;;;;5068750;28;20222;-88
2022/09/11 04:36:48;;;;;;;25.42;16.40;;;16.70;99.90;;;;;;5068780;28;20164;-87
2022/09/11 04:39:14;;;;;;;25.88;13.48;;;16.40;99.90;;;;;;5037250;28;20167;-87
2022/09/11 04:41:39;;;;;;;27.05;14.57;;;16.30;99.90;;;;;;5069628;28;20210;-87
2022/09/11 04:44:05;;;;;;;27.23;13.95;;;16.40;99.90;;;;;;5069012;28;20211;-88
2022/09/11 04:46:33;;;;;;;26.38;14.07;;;16.50;99.90;;;;;;5068915;28;20254;-87
2022/09/11 04:48:59;;;;;;;16.60;13.10;;;16.40;99.90;;;;;;5019282;28;20207;-88
2022/09/11 04:51:35;;;;;;;32.90;13.00;;;16.50;99.90;;;;;;5069043;28;20183;-89
2022/09/11 04:54:03;;;;;;;20.15;13.68;;;16.50;99.90;;;;;;5069170;28;20187;-88
2022/09/11 04:56:34;;;;;;;17.55;13.18;;;16.50;99.90;;;;;;5072228;28;20636;-87
2022/09/11 04:59:12;;;;;;;18.77;14.00;;;16.50;99.90;;;;;;5072710;28;20669;-87
2022/09/11 05:01:45;;;;;;;17.75;13.18;;;16.70;99.90;;;;;;5039503;28;20172;-88
2022/09/11 05:04:11;;;;;;;33.60;13.18;;;16.70;99.90;;;;;;5035850;28;20218;-88
2022/09/11 05:06:38;;;;;;;27.33;13.60;;;16.60;99.90;;;;;;5067985;28;20195;-87
2022/09/11 05:09:05;;;;;;;19.20;13.85;;;16.50;99.90;;;;;;5068209;28;20214;-88
2022/09/11 05:11:33;;;;;;;25.60;13.55;;;16.60;99.90;;;;;;5067802;28;20167;-89
2022/09/11 05:14:00;;;;;;;18.50;13.48;;;16.60;99.90;;;;;;5067788;28;20188;-87
2022/09/11 05:16:27;;;;;;;22.75;14.07;;;16.80;99.90;;;;;;5068144;28;20175;-87
2022/09/11 05:18:53;;;;;;;23.73;15.18;;;16.80;99.90;;;;;;5068630;28;20175;-88
2022/09/11 05:21:21;;;;;;;23.88;14.43;;;16.80;99.90;;;;;;5039523;28;20176;-88
2022/09/11 05:23:50;;;;;;;18.92;15.35;;;17.00;99.90;;;;;;5069164;28;20642;-88
2022/09/11 05:26:18;;;;;;;18.30;14.05;;;17.00;99.90;;;;;;5018241;28;20887;-87
2022/09/11 05:28:44;;;;;;;23.63;14.32;;;17.10;99.90;;;;;;5018512;28;20178;-88
2022/09/11 05:31:17;;;;;;;29.77;14.07;;;17.00;99.90;;;;;;5068339;28;20168;-88
2022/09/11 05:33:44;;;;;;;31.50;13.73;;;16.70;99.90;;;;;;5055086;28;20179;-87
2022/09/11 05:36:11;;;;;;;25.65;13.75;;;16.70;99.90;;;;;;5071744;28;20262;-87
2022/09/11 05:38:38;;;;;;;36.97;14.82;;;16.70;99.90;;;;;;5071695;28;20179;-87
2022/09/11 05:41:06;;;;;;;25.15;14.80;;;16.80;99.90;;;;;;5039359;28;20168;-87
2022/09/11 05:43:32;;;;;;;29.67;14.95;;;17.00;99.90;;;;;;5071062;28;20198;-87
2022/09/11 05:46:00;;;;;;;20.33;15.38;;;16.60;99.90;;;;;;5071361;28;20233;-86
2022/09/11 05:48:31;;;;;;;35.47;16.60;;;16.40;99.90;;;;;;5070820;28;20168;-87
2022/09/11 05:51:05;;;;;;;31.25;16.08;;;16.50;99.90;;;;;;5039128;28;20176;-87
2022/09/11 05:53:32;;;;;;;36.33;14.98;;;16.60;99.90;;;;;;5070908;28;20175;-88
2022/09/11 05:56:21;;;;;;;34.75;16.35;;;16.70;99.90;;;;;;5072126;28;20192;-83
2022/09/11 05:58:52;;;;;;;34.13;15.43;;;17.00;99.90;;;;;;5041530;28;20175;-85
2022/09/11 06:01:25;;;;;;;41.65;15.85;;;16.80;99.90;;;;;;5073714;28;20557;-84
2022/09/11 06:03:52;;;;;;;29.63;15.30;;;16.70;99.90;;;;;;5078440;28;20180;-86
2022/09/11 06:06:20;;;;;;;33.35;16.23;;;16.60;99.90;;;;;;5093684;28;20195;-85
2022/09/11 06:08:49;;;;;;;34.58;16.58;;;16.30;99.90;;;;;;5092769;28;20156;-84
2022/09/11 06:11:16;;;;;;;21.73;14.98;;;16.30;99.90;;;;;;5050691;28;20657;-95
2022/09/11 06:13:45;;;;;;;19.20;14.88;;;16.50;99.90;;;;;;5072491;28;20172;-91
2022/09/11 06:18:56;;;;;;;19.20;15.80;;;17.10;99.90;;;;;;5097536;22;20654;-86
2022/09/11 06:21:28;;;;;;;19.33;15.25;;;17.30;99.90;;;;;;5061123;28;20513;-87
2022/09/11 06:24:02;;;;;;;24.45;14.10;;;17.40;99.90;;;;;;5062926;28;20203;-86
2022/09/11 06:26:29;;;;;;;20.00;15.48;;;17.60;99.90;;;;;;5048088;28;20230;-85
2022/09/11 06:29:00;;;;;;;17.67;14.50;;;17.80;99.90;;;;;;5059696;28;20180;-84
2022/09/11 06:31:26;;;;;;;17.75;14.00;;;17.90;99.90;;;;;;5030526;28;20186;-85
2022/09/11 06:33:54;;;;;;;17.90;14.52;;;18.10;99.90;;;;;;5042339;28;20224;-84
2022/09/11 06:36:22;;;;;;;17.92;14.45;;;18.20;99.90;;;;;;5025515;28;20187;-85
2022/09/11 06:38:56;;;;;;;17.30;14.32;;;18.30;99.90;;;;;;5042825;28;20155;-85
2022/09/11 06:41:26;;;;;;;20.00;14.52;;;18.30;99.90;;;;;;5046595;28;20576;-84
2022/09/11 06:43:52;;;;;;;20.05;15.75;;;18.30;99.90;;;;;;5043581;28;20199;-84
2022/09/11 06:46:19;;;;;;;16.80;14.75;;;18.20;99.90;;;;;;5036895;28;20191;-84
2022/09/11 06:48:46;;;;;;;16.95;14.82;;;18.20;99.90;;;;;;5036320;28;21274;-85
2022/09/11 06:51:14;;;;;;;18.85;15.27;;;18.40;99.90;;;;;;5054433;28;20158;-86
2022/09/11 06:53:40;;;;;;;19.00;15.48;;;18.20;99.90;;;;;;5036618;28;20194;-84
2022/09/11 06:56:08;;;;;;;22.30;17.95;;;18.20;99.90;;;;;;5054755;28;20167;-86
2022/09/11 06:58:34;;;;;;;17.85;14.48;;;18.30;99.90;;;;;;5054298;28;20213;-86
2022/09/11 07:01:18;;;;;;;25.35;17.38;;;18.20;99.90;;;;;;5036543;28;20175;-85
2022/09/11 07:03:46;;;;;;;21.73;16.38;;;18.50;99.90;;;;;;5054057;28;20200;-85
2022/09/11 07:06:17;;;;;;;19.05;15.35;;;18.70;99.90;;;;;;5060314;28;20198;-81
2022/09/11 07:08:43;;;;;;;21.13;15.88;;;18.70;99.90;;;;;;5046475;28;20167;-83
2022/09/11 07:11:12;;;;;;;20.13;15.60;;;18.70;99.90;;;;;;5047204;28;20186;-81
2022/09/11 07:13:47;;;;;;;24.90;18.23;;;18.60;99.90;;;;;;5058927;28;20194;-85
2022/09/11 07:16:13;;;;;;;22.77;15.10;;;18.60;99.90;;;;;;5037170;28;20633;-86
2022/09/11 07:18:41;;;;;;;19.20;14.88;;;18.70;99.90;;;;;;5036284;28;20182;-86
2022/09/11 07:21:11;;;;;;;22.58;16.98;;;18.90;99.90;;;;;;5053172;28;20155;-83
2022/09/11 07:23:38;;;;;;;21.77;16.13;;;19.00;99.90;;;;;;5035583;28;20233;-84
2022/09/11 07:26:06;;;;;;;24.80;16.92;;;18.80;99.90;;;;;;5035198;28;20175;-83
2022/09/11 07:28:32;;;;;;;22.02;17.75;;;18.90;99.90;;;;;;5035335;28;20159;-83
2022/09/11 07:31:05;;;;;;;25.23;18.08;;;18.70;99.90;;;;;;5035572;28;20178;-84
2022/09/11 07:33:31;;;;;;;24.58;18.17;;;18.50;99.90;;;;;;5035472;28;20171;-83
2022/09/11 07:35:57;;;;;;;23.60;17.77;;;18.70;99.90;;;;;;5035421;28;20187;-84
2022/09/11 07:38:22;;;;;;;27.00;18.17;;;18.50;99.90;;;;;;5035380;28;20171;-84
2022/09/11 07:40:48;;;;;;;23.17;18.48;;;18.50;99.90;;;;;;5035828;28;20182;-83
2022/09/11 07:43:14;;;;;;;25.20;18.10;;;18.70;99.90;;;;;;5053237;28;20163;-84
2022/09/11 07:45:39;;;;;;;26.98;18.67;;;18.80;99.90;;;;;;5053226;28;20219;-83
2022/09/11 07:48:05;;;;;;;21.05;17.38;;;18.90;99.90;;;;;;5035507;28;20167;-83
2022/09/11 07:50:32;;;;;;;23.67;18.70;;;19.10;99.90;;;;;;5035372;28;20170;-83
2022/09/11 07:53:03;;;;;;;24.45;19.35;;;19.10;99.90;;;;;;5054486;28;20159;-82
2022/09/11 07:55:33;;;;;;;27.15;20.02;;;19.40;99.90;;;;;;5058189;28;20221;-82
2022/09/11 07:57:58;;;;;;;23.15;17.95;;;19.50;99.90;;;;;;5037357;28;20171;-85
2022/09/11 08:00:24;;;;;;;19.73;17.65;;;19.70;99.90;;;;;;5052539;28;20179;-84
2022/09/11 08:02:50;;;;;;;25.13;18.20;;;19.90;99.90;;;;;;5034636;28;20173;-83
2022/09/11 08:05:17;;;;;;;23.85;18.48;;;20.00;99.90;;;;;;5038546;28;20214;-83
2022/09/11 08:07:43;;;;;;;25.48;16.85;;;20.20;99.90;;;;;;5056016;28;20230;-84
2022/09/11 08:10:09;;;;;;;21.00;18.30;;;20.40;99.90;;;;;;5053846;28;20179;-84
2022/09/11 08:12:35;;;;;;;27.90;19.02;;;19.80;99.90;;;;;;5052645;28;20159;-85
2022/09/11 08:15:01;;;;;;;25.45;19.20;;;19.90;99.90;;;;;;5034634;28;20282;-83
2022/09/11 08:17:27;;;;;;;26.52;19.33;;;20.20;99.90;;;;;;5034954;28;20197;-83
2022/09/11 08:19:52;;;;;;;22.10;17.92;;;20.30;99.90;;;;;;5055829;28;20167;-83
2022/09/11 08:22:25;;;;;;;20.73;17.48;;;20.30;99.90;;;;;;5062909;28;20226;-83
2022/09/11 08:24:50;;;;;;;21.17;17.63;;;20.50;99.90;;;;;;5056792;28;20573;-82
2022/09/11 08:27:17;;;;;;;24.65;17.40;;;20.30;99.90;;;;;;5035379;28;20195;-83
2022/09/11 08:29:43;;;;;;;21.73;18.30;;;20.70;99.90;;;;;;5035307;28;20171;-83
2022/09/11 08:32:09;;;;;;;23.63;18.23;;;20.80;99.90;;;;;;5034569;28;20643;-82
2022/09/11 08:34:37;;;;;;;24.10;18.23;;;20.80;99.90;;;;;;5036646;28;20246;-83
2022/09/11 08:37:02;;;;;;;22.85;17.92;;;20.10;99.90;;;;;;5055468;28;20175;-82
2022/09/11 08:39:28;;;;;;;25.42;19.27;;;20.40;99.90;;;;;;5060408;28;20171;-84
2022/09/11 08:42:01;;;;;;;26.55;19.90;;;20.60;99.90;;;;;;5065865;28;20203;-84
2022/09/11 08:44:36;;;;;;;23.98;18.80;;;20.00;99.90;;;;;;5057818;28;20211;-86
2022/09/11 08:47:06;;;;;;;23.33;19.10;;;20.60;99.90;;;;;;5041259;28;20600;-82
2022/09/11 08:49:42;;;;;;;22.20;19.77;;;20.90;99.90;;;;;;5034512;28;20167;-82
2022/09/11 08:52:11;;;;;;;26.20;20.40;;;20.50;99.90;;;;;;5034768;28;20163;-83
2022/09/11 08:54:40;;;;;;;28.33;18.23;;;20.30;99.90;;;;;;5034159;28;20191;-83
2022/09/11 08:57:27;;;;;;;27.48;19.05;;;20.60;99.90;;;;;;5034557;28;20213;-83
2022/09/11 09:00:06;;;;;;;25.20;19.92;;;21.00;99.90;;;;;;5052853;28;20170;-85
2022/09/11 09:02:52;;;;;;;24.00;20.13;;;21.00;99.90;;;;;;5035507;28;20174;-83
2022/09/11 09:05:51;;;;;;;29.02;20.88;;;21.00;99.90;;;;;;5036704;28;20247;-83
2022/09/11 09:08:28;;;;;;;27.48;20.65;;;21.20;99.90;;;;;;5036249;28;20641;-83
2022/09/11 09:11:15;;;;;;;26.50;20.80;;;21.10;99.90;;;;;;5038799;28;20255;-83
2022/09/11 09:13:50;;;;;;;30.10;21.30;;;21.30;99.90;;;;;;5038081;28;20265;-82
2022/09/11 09:16:50;;;;;;;26.98;20.67;;;21.50;99.90;;;;;;5055994;28;20246;-82
2022/09/11 09:19:43;;;;;;;28.38;20.15;;;20.90;99.90;;;;;;5038470;28;20266;-83
2022/09/11 09:22:22;;;;;;;26.27;20.42;;;20.90;99.90;;;;;;5039298;28;20163;-83
2022/09/11 09:24:51;;;;;;;27.92;21.00;;;20.70;99.90;;;;;;5055546;28;20207;-83
2022/09/11 09:27:20;;;;;;;25.58;20.30;;;20.90;99.90;;;;;;5056062;28;20652;-86
2022/09/11 09:29:51;;;;;;;29.27;20.70;;;21.20;99.90;;;;;;5037546;28;20171;-82
2022/09/11 09:32:29;;;;;;;28.00;20.40;;;21.30;99.90;;;;;;5037601;28;20649;-82
2022/09/11 09:34:59;;;;;;;28.42;20.55;;;21.70;99.90;;;;;;5037183;28;20201;-83
2022/09/11 09:37:27;;;;;;;26.52;20.63;;;22.10;99.90;;;;;;5037459;28;20650;-83
2022/09/11 09:39:54;;;;;;;24.52;19.55;;;22.10;99.90;;;;;;5058560;28;20167;-84
2022/09/11 09:42:38;;;;;;;23.52;18.95;;;22.30;99.90;;;;;;5042000;28;20170;-85
2022/09/11 09:45:23;;;;;;;22.90;19.17;;;22.60;99.90;;;;;;5055132;28;20222;-85
2022/09/11 09:47:49;;;;;;;28.08;20.30;;;22.30;99.90;;;;;;5036785;28;20167;-83
2022/09/11 09:50:24;;;;;;;25.30;20.33;;;22.50;99.90;;;;;;5037017;28;20175;-84
2022/09/11 09:52:53;;;;;;;28.27;20.23;;;22.70;99.90;;;;;;5037137;28;20233;-83
2022/09/11 09:55:19;;;;;;;25.90;20.92;;;22.50;99.90;;;;;;5037081;28;20180;-81
2022/09/11 09:57:46;;;;;;;28.35;20.55;;;22.60;99.90;;;;;;5037135;28;20205;-82
2022/09/11 10:00:18;;;;;;;28.40;20.50;;;22.40;99.90;;;;;;5037308;28;20270;-82
2022/09/11 10:02:56;;;;;;;28.13;20.17;;;22.30;99.90;;;;;;5037333;28;20182;-83
2022/09/11 10:05:30;;;;;;;28.20;20.48;;;22.30;99.90;;;;;;5036935;28;20211;-83
2022/09/11 10:07:56;;;;;;;34.03;21.08;;;22.30;99.90;;;;;;5054438;28;20170;-82
2022/09/11 10:10:35;;;;;;;24.52;19.55;;;21.80;99.90;;;;;;5054652;28;20175;-82
2022/09/11 10:13:04;;;;;;;22.95;19.23;;;22.00;99.90;;;;;;5037706;28;20180;-89
2022/09/11 10:15:36;;;;;;;31.10;20.63;;;21.90;99.90;;;;;;5057074;28;20195;-88
2022/09/11 10:18:41;;;;;;;23.75;19.60;;;21.90;99.90;;;;;;5041086;28;20187;-91
2022/09/11 10:21:12;;;;;;;23.13;19.15;;;21.90;99.90;;;;;;5040627;28;20537;-90
2022/09/11 10:23:51;;;;;;;26.48;20.42;;;21.60;99.90;;;;;;5040330;28;20182;-89
2022/09/11 10:26:38;;;;;;;28.70;20.35;;;21.60;99.90;;;;;;5040151;28;20180;-89
2022/09/11 10:29:18;;;;;;;33.17;20.65;;;21.70;99.90;;;;;;5054635;28;20163;-85
2022/09/11 10:31:53;;;;;;;19.20;16.33;;;21.50;99.90;;;;;;5054802;28;20171;-83
2022/09/11 10:34:21;;;;;;;23.67;16.95;;;21.10;99.90;;;;;;5036279;28;20194;-84
2022/09/11 10:36:59;;;;;;;32.17;19.13;;;21.10;99.90;;;;;;5036469;28;20186;-83
2022/09/11 10:39:27;;;;;;;26.90;18.30;;;21.30;99.90;;;;;;5036601;28;20173;-82
2022/09/11 10:41:58;;;;;;;27.83;18.70;;;21.20;99.90;;;;;;5036046;28;20628;-81
2022/09/11 10:44:25;;;;;;;26.10;17.02;;;21.40;99.90;;;;;;5053655;28;20713;-83
2022/09/11 10:47:14;;;;;;;24.83;18.17;;;21.70;99.90;;;;;;5054150;28;20167;-85
2022/09/11 10:49:41;;;;;;;23.00;16.65;;;21.80;99.90;;;;;;5036487;28;20246;-84
2022/09/11 10:52:07;;;;;;;25.15;15.88;;;22.00;99.90;;;;;;5036291;28;20262;-83
2022/09/11 10:54:58;;;;;;;18.73;14.75;;;21.90;99.90;;;;;;5036700;28;20281;-83
2022/09/11 10:57:37;;;;;;;13.85;12.45;;;22.10;99.90;;;;;;5036808;28;20625;-85
2022/09/11 11:00:16;;;;;;;11.32;10.32;;;22.10;99.90;;;;;;5056420;28;20176;-85
2022/09/11 11:02:47;;;;;;;8.82;7.00;;;22.10;99.90;;;;;;5055083;28;20167;-87
2022/09/11 11:05:28;;;;;;;11.20;7.70;;;21.90;99.90;;;;;;5038265;28;20215;-90
2022/09/11 11:08:06;;;;;;;11.52;7.38;;;21.80;99.90;;;;;;5037131;28;20203;-86
2022/09/11 11:10:43;;;;;;;8.52;7.72;;;21.90;99.90;;;;;;5036443;28;20177;-84
2022/09/11 11:13:21;;;;;;;9.05;8.20;;;22.30;99.90;;;;;;5026838;28;20270;-85
2022/09/11 11:15:59;;;;;;;10.63;9.57;;;22.50;99.90;;;;;;5044971;28;20197;-83
2022/09/11 11:18:40;;;;;;;15.10;9.77;;;22.80;99.90;;;;;;5072700;28;20178;-83
2022/09/11 11:21:25;;;;;;;9.35;8.07;;;23.10;99.90;;;;;;5060173;28;20647;-88
2022/09/11 11:24:16;;;;;;;11.75;9.32;;;23.50;99.90;;;;;;5053271;28;20179;-81
2022/09/11 11:26:44;;;;;;;8.73;7.93;;;23.60;99.90;;;;;;5024255;28;20209;-84
2022/09/11 11:29:35;;;;;;;8.57;7.65;;;23.80;99.90;;;;;;5035363;28;20186;-83
2022/09/11 11:32:24;;;;;;;10.43;8.77;;;24.10;99.90;;;;;;5065265;28;20194;-84
2022/09/11 11:35:19;;;;;;;10.05;9.15;;;24.30;99.90;;;;;;5012446;28;20222;-83
2022/09/11 11:37:47;;;;;;;10.40;9.25;;;24.20;99.90;;;;;;5047121;28;20629;-82
2022/09/11 11:40:16;;;;;;;11.13;7.70;;;24.30;99.90;;;;;;5027851;28;20172;-82
2022/09/11 11:43:04;;;;;;;12.13;7.85;;;24.00;99.90;;;;;;5041656;28;20175;-89
2022/09/11 11:45:52;;;;;;;9.43;8.63;;;24.20;99.90;;;;;;5035403;28;20219;-90
2022/09/11 11:48:22;;;;;;;9.75;8.38;;;24.40;99.90;;;;;;5027564;28;20237;-93
2022/09/11 11:51:03;;;;;;;9.23;7.70;;;24.10;99.90;;;;;;5054011;28;20177;-90
2022/09/11 11:53:39;;;;;;;9.05;8.30;;;24.00;99.90;;;;;;5045677;28;20630;-87
2022/09/11 11:56:23;;;;;;;14.90;8.77;;;24.30;99.90;;;;;;5019258;28;20224;-87
2022/09/11 11:58:58;;;;;;;9.07;8.10;;;24.40;99.90;;;;;;5030762;28;20179;-89
2022/09/11 12:01:41;;;;;;;10.07;6.15;;;24.70;99.90;;;;;;5027424;28;20171;-82
2022/09/11 12:04:10;;;;;;;7.93;7.28;;;25.00;99.90;;;;;;5033602;28;20588;-85
2022/09/11 12:06:35;;;;;;;7.57;6.57;;;25.10;99.90;;;;;;5051850;28;20179;-85
2022/09/11 12:09:03;;;;;;;11.30;7.57;;;25.40;99.90;;;;;;5030435;28;20270;-86
2022/09/11 12:11:31;;;;;;;7.28;6.43;;;25.90;99.90;;;;;;5049758;28;20712;-82
2022/09/11 12:13:57;;;;;;;7.72;6.85;;;26.20;99.90;;;;;;5043822;28;20650;-81
2022/09/11 12:16:30;;;;;;;8.52;7.70;;;26.00;99.90;;;;;;5048911;28;20649;-82
2022/09/11 12:19:21;;;;;;;7.60;6.93;;;25.70;99.90;;;;;;5028052;28;20244;-83
2022/09/11 12:21:52;;;;;;;8.55;7.68;;;25.80;99.90;;;;;;5022311;28;20628;-83
2022/09/11 12:24:21;;;;;;;7.82;7.13;;;25.40;99.90;;;;;;5050004;28;20217;-80
2022/09/11 12:27:06;;;;;;;12.57;8.43;;;25.60;99.90;;;;;;5049680;28;20179;-80
2022/09/11 12:29:54;;;;;;;10.40;8.10;;;25.40;99.90;;;;;;5044175;28;20201;-79
2022/09/11 12:32:27;;;;;;;7.68;7.07;;;25.20;99.90;;;;;;5049965;28;20710;-81
2022/09/11 12:34:53;;;;;;;6.25;5.78;;;25.00;99.90;;;;;;5046443;28;20195;-79
2022/09/11 12:37:39;;;;;;;8.02;7.20;;;24.50;99.90;;;;;;5039476;28;20198;-79
2022/09/11 12:40:19;;;;;;;7.30;6.60;;;23.90;99.90;;;;;;5052103;28;20175;-83
2022/09/11 12:42:53;;;;;;;6.93;5.85;;;23.70;99.90;;;;;;5041331;28;20179;-81
2022/09/11 12:45:37;;;;;;;6.00;5.28;;;23.80;99.90;;;;;;5041367;28;20214;-84
2022/09/11 12:48:19;;;;;;;6.47;5.88;;;24.00;99.90;;;;;;5037023;28;20228;-80
2022/09/11 12:50:55;;;;;;;5.80;5.30;;;23.80;99.90;;;;;;5043584;28;20613;-85
2022/09/11 12:53:32;;;;;;;5.93;5.13;;;23.80;99.90;;;;;;5037487;28;20249;-83
2022/09/11 12:56:06;;;;;;;7.80;3.97;;;23.70;99.90;;;;;;5036396;28;20195;-81
2022/09/11 12:58:39;;;;;;;4.97;4.47;;;23.70;99.90;;;;;;5038959;28;20180;-82